Time;durP1;ratioP1;P1;durP2;ratioP2;P2;SDS_P1;SDS_P2;PMS_P1;PMS_P2;Temp;Humidity;BMP_temperature;BMP_pressure;BME280_temperature;BME280_humidity;BME280_pressure;Samples;Min_cycle;Max_cycle;Signal;HPM_P1;HPM_P2
2022/11/01 00:03:07;;;;;;;39.03;23.55;;;;;;;10.15;76.39;100313.09;30616356;28;97121;-70
2022/11/01 00:18:08;;;;;;;34.65;23.38;;;;;;;10.20;76.76;100286.81;30615177;28;97269;-71
2022/11/01 00:33:08;;;;;;;35.47;21.15;;;;;;;10.04;76.46;100262.84;30613469;28;96815;-68
2022/11/01 00:48:08;;;;;;;34.70;20.90;;;;;;;9.86;76.94;100253.19;30610757;28;113024;-68
2022/11/01 01:03:09;;;;;;;35.47;20.73;;;;;;;9.69;77.47;100238.19;30611135;28;97122;-66
2022/11/01 01:18:10;;;;;;;30.60;21.30;;;;;;;9.66;77.50;100218.06;30610292;28;97001;-68
2022/11/01 01:33:10;;;;;;;30.87;20.90;;;;;;;9.64;77.71;100214.75;30608783;28;97292;-69
2022/11/01 01:48:23;;;;;;;29.17;20.02;;;;;;;9.52;77.83;100189.44;30607459;28;96842;-66
2022/11/01 02:03:31;;;;;;;30.90;20.90;;;;;;;9.42;78.55;100182.44;30622116;28;96570;-66
2022/11/01 02:19:10;;;;;;;32.47;21.27;;;;;;;9.20;78.31;100165.28;30626861;28;96658;-69
2022/11/01 02:34:23;;;;;;;28.97;20.70;;;;;;;9.02;78.81;100157.44;30623476;28;96915;-70
2022/11/01 02:49:35;;;;;;;37.77;23.23;;;;;;;8.66;78.58;100154.94;30623159;28;96835;-70
2022/11/01 03:04:36;;;;;;;29.97;21.30;;;;;;;8.35;78.91;100154.56;30621524;28;97478;-69
2022/11/01 03:19:48;;;;;;;54.35;23.75;;;;;;;8.23;79.84;100148.69;30619875;28;114003;-69
2022/11/01 03:34:48;;;;;;;35.70;22.27;;;;;;;8.33;80.40;100127.38;30618184;28;97398;-68
2022/11/01 03:50:11;;;;;;;37.28;23.50;;;;;;;8.20;80.09;100136.59;30617196;28;96704;-70
2022/11/01 04:05:12;;;;;;;33.80;21.67;;;;;;;8.21;80.60;100137.41;30615212;28;96938;-69
2022/11/01 04:35:31;;;;;;;41.93;25.53;;;;;;;7.99;80.21;100128.13;30611673;28;97581;-67
2022/11/01 04:50:33;;;;;;;38.65;24.40;;;;;;;7.91;80.75;100129.75;30610811;28;113936;-68
2022/11/01 05:05:34;;;;;;;36.43;22.33;;;;;;;7.94;81.11;100113.53;30610014;28;96846;-66
2022/11/01 05:20:34;;;;;;;47.15;19.40;;;;;;;7.94;81.43;100094.09;30609246;28;96822;-65
2022/11/01 05:35:35;;;;;;;30.42;19.08;;;;;;;7.84;80.86;100078.28;30621000;28;96867;-65
2022/11/01 05:50:36;;;;;;;38.72;22.55;;;;;;;7.59;81.28;100117.06;30629406;28;96693;-65
2022/11/01 06:05:37;;;;;;;35.55;21.10;;;;;;;7.80;81.63;100111.41;30627717;28;97000;-65
2022/11/01 06:20:37;;;;;;;75.87;22.33;;;;;;;7.94;81.72;100123.28;30625927;28;96696;-66
2022/11/01 06:35:37;;;;;;;37.15;20.33;;;;;;;8.32;81.97;100176.13;30623189;28;96803;-65
2022/11/01 06:50:38;;;;;;;37.88;21.65;;;;;;;8.51;81.47;100183.91;30621201;28;97653;-65
2022/11/01 07:05:39;;;;;;;44.50;25.33;;;;;;;9.25;80.99;100167.44;30621545;28;96875;-65
2022/11/01 07:20:42;;;;;;;35.93;19.93;;;;;;;9.83;80.49;100206.44;30619252;28;96614;-65
2022/11/01 07:35:43;;;;;;;30.97;18.60;;;;;;;10.41;79.60;100190.47;30616653;28;97205;-65
2022/11/01 07:50:44;;;;;;;29.25;15.98;;;;;;;11.90;79.12;100184.44;30616566;28;97609;-65
2022/11/01 08:05:46;;;;;;;25.67;14.60;;;;;;;14.17;77.32;100195.38;30614231;28;98492;-65
2022/11/01 08:20:47;;;;;;;25.37;14.90;;;;;;;15.09;72.97;100200.75;30613615;28;97145;-65
2022/11/01 08:35:47;;;;;;;20.60;13.50;;;;;;;16.96;68.59;100181.22;30610258;28;97046;-70
2022/11/01 08:50:48;;;;;;;21.05;13.93;;;;;;;18.30;64.83;100182.28;30612288;28;100317;-65
2022/11/01 09:05:48;;;;;;;17.30;13.30;;;;;;;22.02;59.08;100195.59;30603576;28;97630;-65
2022/11/01 09:20:56;;;;;;;18.23;12.40;;;;;;;29.95;41.53;100198.63;30601563;28;97270;-66
2022/11/01 09:35:56;;;;;;;17.43;12.63;;;;;;;28.23;40.48;100216.66;30597507;28;105069;-66
2022/11/01 09:51:06;;;;;;;13.27;10.63;;;;;;;30.88;34.48;100229.94;30596738;28;97324;-66
2022/11/01 10:06:21;;;;;;;12.37;9.50;;;;;;;33.69;27.52;100218.63;30596552;28;97431;-67
2022/11/01 10:21:23;;;;;;;15.10;9.97;;;;;;;26.84;33.12;100237.41;30605562;28;96844;-66
2022/11/01 10:36:32;;;;;;;16.60;10.73;;;;;;;27.22;34.23;100234.25;30614381;28;97494;-66
2022/11/01 10:51:34;;;;;;;13.47;10.23;;;;;;;29.49;29.37;100241.28;30608153;28;97898;-66
2022/11/01 11:06:35;;;;;;;12.97;10.17;;;;;;;27.36;35.11;100245.44;30612174;28;97519;-66
2022/11/01 11:21:36;;;;;;;10.53;7.77;;;;;;;32.95;28.55;100245.94;30610922;28;96727;-66
2022/11/01 11:36:42;;;;;;;7.90;4.40;;;;;;;30.33;27.69;100242.50;30607444;28;97344;-68
2022/11/01 11:51:45;;;;;;;7.47;3.80;;;;;;;27.77;31.16;100242.44;30611611;28;97535;-67
2022/11/01 12:06:45;;;;;;;6.53;4.27;;;;;;;28.00;30.28;100249.16;30614301;28;96802;-68
2022/11/01 12:21:46;;;;;;;6.97;3.88;;;;;;;26.37;32.65;100244.03;30612415;28;97371;-65
2022/11/01 12:37:01;;;;;;;10.55;7.28;;;;;;;25.80;32.84;100240.44;30610354;28;97284;-67
2022/11/01 12:52:25;;;;;;;9.03;4.63;;;;;;;29.98;28.74;100241.16;30603365;28;97063;-67
2022/11/01 13:07:48;;;;;;;8.63;4.87;;;;;;;31.29;27.13;100237.38;30590858;28;96856;-67
2022/11/01 13:22:55;;;;;;;8.23;4.60;;;;;;;31.05;26.38;100252.16;30607226;28;97180;-67
2022/11/01 13:37:57;;;;;;;8.23;4.20;;;;;;;24.65;33.15;100259.31;30608284;28;97219;-68
2022/11/01 13:53:05;;;;;;;7.63;4.37;;;;;;;22.55;37.58;100264.03;30602453;28;100219;-71
2022/11/01 14:08:24;;;;;;;5.33;4.30;;;;;;;24.82;34.21;100275.47;30607366;28;97182;-66
2022/11/01 14:23:27;;;;;;;7.53;4.83;;;;;;;21.35;39.18;100273.78;30613392;28;97116;-69
2022/11/01 14:38:40;;;;;;;14.47;6.07;;;;;;;19.00;43.86;100286.44;30613628;28;96849;-68
2022/11/01 14:53:41;;;;;;;11.43;7.00;;;;;;;17.71;46.82;100295.66;30612611;28;97237;-68
2022/11/01 15:08:41;;;;;;;16.67;7.70;;;;;;;16.72;49.90;100295.72;30609015;28;97621;-69
2022/11/01 15:23:45;;;;;;;16.63;9.50;;;;;;;15.89;52.10;100305.75;30610047;28;96774;-68
2022/11/01 15:38:55;;;;;;;14.27;9.00;;;;;;;15.35;54.99;100312.75;30605976;28;97601;-67
2022/11/01 15:54:16;;;;;;;16.40;8.87;;;;;;;14.93;56.23;100321.78;30606921;28;96744;-76
2022/11/01 16:09:36;;;;;;;18.37;9.70;;;;;;;14.53;57.71;100336.50;30605740;28;97127;-69
2022/11/01 16:24:37;;;;;;;31.17;18.07;;;;;;;14.05;59.06;100354.97;30601687;28;96735;-71
2022/11/01 16:39:38;;;;;;;16.57;9.10;;;;;;;13.76;60.54;100362.03;30601442;28;96920;-73
2022/11/01 16:54:39;;;;;;;13.40;7.80;;;;;;;13.67;62.15;100384.59;30601296;28;97241;-72
2022/11/01 17:09:40;;;;;;;16.93;9.07;;;;;;;13.46;63.66;100404.88;30600167;28;97642;-73
2022/11/01 17:24:40;;;;;;;14.57;8.63;;;;;;;13.32;64.80;100419.06;30599325;28;97352;-72
2022/11/01 17:39:41;;;;;;;13.57;9.32;;;;;;;13.24;65.46;100424.50;30616349;28;97090;-70
2022/11/01 17:54:42;;;;;;;14.50;9.83;;;;;;;13.27;65.80;100435.66;30616239;28;97219;-75
2022/11/01 18:09:42;;;;;;;14.05;8.50;;;;;;;13.20;66.32;100427.53;30616635;28;108735;-75
2022/11/01 18:25:11;;;;;;;16.38;9.80;;;;;;;13.16;66.80;100431.59;30619532;28;112196;-74
2022/11/01 18:40:18;;;;;;;15.47;9.27;;;;;;;13.10;67.31;100429.63;30612030;28;97549;-74
2022/11/01 18:55:18;;;;;;;16.70;10.83;;;;;;;13.11;67.96;100439.31;30612342;28;97229;-71
2022/11/01 19:10:20;;;;;;;19.85;11.38;;;;;;;13.12;68.16;100453.50;30609951;28;115737;-66
2022/11/01 19:25:23;;;;;;;18.70;11.27;;;;;;;13.03;67.94;100482.19;30625999;28;97581;-72
2022/11/01 19:40:25;;;;;;;24.43;12.13;;;;;;;13.04;68.29;100491.88;30601218;28;96814;-72
2022/11/01 19:55:35;;;;;;;22.27;13.30;;;;;;;12.91;68.66;100491.63;30604597;28;97432;-70
2022/11/01 20:10:35;;;;;;;23.20;13.40;;;;;;;12.78;68.95;100517.13;30605312;28;96767;-70
2022/11/01 20:25:37;;;;;;;22.10;12.63;;;;;;;12.63;69.72;100526.88;30604875;28;97005;-68
2022/11/01 20:40:38;;;;;;;21.33;13.73;;;;;;;12.36;70.20;100535.19;30602133;28;97472;-70
2022/11/01 20:55:38;;;;;;;24.23;12.82;;;;;;;12.12;70.36;100537.97;30599066;28;97431;-69
2022/11/01 21:10:40;;;;;;;31.63;14.38;;;;;;;11.95;71.95;100545.19;30600728;28;97620;-69
2022/11/01 21:25:43;;;;;;;31.17;18.63;;;;;;;11.90;72.54;100536.81;30601240;28;96829;-69
2022/11/01 21:40:43;;;;;;;31.57;16.33;;;;;;;11.77;72.63;100532.84;30599605;28;97240;-69
2022/11/01 21:55:44;;;;;;;25.80;14.73;;;;;;;11.67;73.32;100537.50;30594344;28;117622;-70
2022/11/01 22:10:44;;;;;;;28.17;15.95;;;;;;;11.47;72.67;100524.53;30606228;28;98033;-71
2022/11/01 22:25:44;;;;;;;27.55;16.00;;;;;;;11.25;73.58;100541.19;30630689;28;120677;-68
2022/11/01 22:40:57;;;;;;;27.10;14.55;;;;;;;11.00;74.14;100527.84;30622725;28;113734;-69
2022/11/01 22:55:57;;;;;;;26.87;14.53;;;;;;;10.76;74.63;100528.66;30624011;28;96686;-69
2022/11/01 23:10:58;;;;;;;29.35;15.43;;;;;;;10.58;75.06;100531.41;30622380;28;101359;-71
2022/11/01 23:26:01;;;;;;;28.60;15.53;;;;;;;10.45;75.93;100548.69;30620252;28;96761;-70
2022/11/01 23:41:02;;;;;;;22.83;14.63;;;;;;;10.28;76.08;100552.28;30619140;28;96876;-68
2022/11/01 23:56:06;;;;;;;30.83;15.82;;;;;;;10.23;76.42;100541.25;30618231;28;96783;-68
